sensor_id;sensor_type;location;lat;lon;timestamp;temperature;humidity
2106;DHT22;1059;52.548;13.408;2023-04-03T00:02:00;2.00;99.90
2106;DHT22;1059;52.548;13.408;2023-04-03T00:04:27;2.00;99.90
2106;DHT22;1059;52.548;13.408;2023-04-03T00:06:55;1.90;99.90
2106;DHT22;1059;52.548;13.408;2023-04-03T00:09:22;1.90;99.90
2106;DHT22;1059;52.548;13.408;2023-04-03T00:11:49;1.90;99.90
2106;DHT22;1059;52.548;13.408;2023-04-03T00:14:16;1.90;99.90
2106;DHT22;1059;52.548;13.408;2023-04-03T00:16:42;1.90;99.90
2106;DHT22;1059;52.548;13.408;2023-04-03T00:19:09;1.90;99.90
2106;DHT22;1059;52.548;13.408;2023-04-03T00:21:38;1.90;99.90
2106;DHT22;1059;52.548;13.408;2023-04-03T00:24:07;1.80;99.90
2106;DHT22;1059;52.548;13.408;2023-04-03T00:26:34;1.80;99.90
2106;DHT22;1059;52.548;13.408;2023-04-03T00:29:01;1.80;99.90
2106;DHT22;1059;52.548;13.408;2023-04-03T00:31:28;1.80;99.90
2106;DHT22;1059;52.548;13.408;2023-04-03T00:33:54;1.80;99.90
2106;DHT22;1059;52.548;13.408;2023-04-03T00:36:21;1.80;99.90
2106;DHT22;1059;52.548;13.408;2023-04-03T00:38:48;1.80;99.90
2106;DHT22;1059;52.548;13.408;2023-04-03T00:41:16;1.80;99.90
2106;DHT22;1059;52.548;13.408;2023-04-03T00:43:43;1.70;99.90
2106;DHT22;1059;52.548;13.408;2023-04-03T00:46:10;1.70;99.90
2106;DHT22;1059;52.548;13.408;2023-04-03T00:48:40;1.70;99.90
2106;DHT22;1059;52.548;13.408;2023-04-03T00:51:11;1.70;99.90
2106;DHT22;1059;52.548;13.408;2023-04-03T00:53:41;1.70;99.90
2106;DHT22;1059;52.548;13.408;2023-04-03T00:56:13;1.70;99.90
2106;DHT22;1059;52.548;13.408;2023-04-03T00:58:45;1.70;99.90
2106;DHT22;1059;52.548;13.408;2023-04-03T01:01:16;1.70;99.90
2106;DHT22;1059;52.548;13.408;2023-04-03T01:03:44;1.70;99.90
2106;DHT22;1059;52.548;13.408;2023-04-03T01:06:11;1.70;99.90
2106;DHT22;1059;52.548;13.408;2023-04-03T01:08:38;1.70;99.90
2106;DHT22;1059;52.548;13.408;2023-04-03T01:11:05;1.70;99.90
2106;DHT22;1059;52.548;13.408;2023-04-03T01:13:33;1.60;99.90
2106;DHT22;1059;52.548;13.408;2023-04-03T01:16:03;1.70;99.90
2106;DHT22;1059;52.548;13.408;2023-04-03T01:18:31;1.60;99.90
2106;DHT22;1059;52.548;13.408;2023-04-03T01:24:22;1.50;99.90
2106;DHT22;1059;52.548;13.408;2023-04-03T01:26:52;1.50;99.90
2106;DHT22;1059;52.548;13.408;2023-04-03T01:29:19;1.40;99.90
2106;DHT22;1059;52.548;13.408;2023-04-03T01:31:53;1.40;99.90
2106;DHT22;1059;52.548;13.408;2023-04-03T01:34:20;1.30;99.90
2106;DHT22;1059;52.548;13.408;2023-04-03T01:36:47;1.30;99.90
2106;DHT22;1059;52.548;13.408;2023-04-03T01:39:14;1.30;99.90
2106;DHT22;1059;52.548;13.408;2023-04-03T01:41:41;1.30;99.90
2106;DHT22;1059;52.548;13.408;2023-04-03T01:44:08;1.20;99.90
2106;DHT22;1059;52.548;13.408;2023-04-03T01:46:35;1.20;99.90
2106;DHT22;1059;52.548;13.408;2023-04-03T01:49:04;1.20;99.90
2106;DHT22;1059;52.548;13.408;2023-04-03T01:51:31;1.20;99.90
2106;DHT22;1059;52.548;13.408;2023-04-03T01:53:58;1.20;99.90
2106;DHT22;1059;52.548;13.408;2023-04-03T01:56:25;1.10;99.90
2106;DHT22;1059;52.548;13.408;2023-04-03T01:58:52;1.10;99.90
2106;DHT22;1059;52.548;13.408;2023-04-03T02:01:19;1.10;99.90
2106;DHT22;1059;52.548;13.408;2023-04-03T02:03:46;1.00;99.90
2106;DHT22;1059;52.548;13.408;2023-04-03T02:06:15;1.00;99.90
2106;DHT22;1059;52.548;13.408;2023-04-03T02:08:41;1.00;99.90
2106;DHT22;1059;52.548;13.408;2023-04-03T02:11:08;1.00;99.90
2106;DHT22;1059;52.548;13.408;2023-04-03T02:13:35;1.00;99.90
2106;DHT22;1059;52.548;13.408;2023-04-03T02:16:07;1.00;99.90
2106;DHT22;1059;52.548;13.408;2023-04-03T02:18:35;0.90;99.90
2106;DHT22;1059;52.548;13.408;2023-04-03T02:21:02;0.90;99.90
2106;DHT22;1059;52.548;13.408;2023-04-03T02:23:30;0.90;99.90
2106;DHT22;1059;52.548;13.408;2023-04-03T02:26:05;0.90;99.90
2106;DHT22;1059;52.548;13.408;2023-04-03T02:28:33;0.80;99.90
2106;DHT22;1059;52.548;13.408;2023-04-03T02:31:00;0.80;99.90
2106;DHT22;1059;52.548;13.408;2023-04-03T02:33:27;0.80;99.90
2106;DHT22;1059;52.548;13.408;2023-04-03T02:35:54;0.80;99.90
2106;DHT22;1059;52.548;13.408;2023-04-03T02:38:22;0.70;99.90
2106;DHT22;1059;52.548;13.408;2023-04-03T02:40:50;0.70;99.90
2106;DHT22;1059;52.548;13.408;2023-04-03T02:43:18;0.70;99.90
2106;DHT22;1059;52.548;13.408;2023-04-03T02:45:45;0.70;99.90
2106;DHT22;1059;52.548;13.408;2023-04-03T02:48:12;0.70;99.90
2106;DHT22;1059;52.548;13.408;2023-04-03T02:50:40;0.70;99.90
2106;DHT22;1059;52.548;13.408;2023-04-03T02:53:07;0.70;99.90
2106;DHT22;1059;52.548;13.408;2023-04-03T02:55:33;0.70;99.90
2106;DHT22;1059;52.548;13.408;2023-04-03T02:58:02;0.70;99.90
2106;DHT22;1059;52.548;13.408;2023-04-03T03:00:29;0.70;99.90
2106;DHT22;1059;52.548;13.408;2023-04-03T03:02:56;0.70;99.90
2106;DHT22;1059;52.548;13.408;2023-04-03T03:05:23;0.60;99.90
2106;DHT22;1059;52.548;13.408;2023-04-03T03:07:49;0.60;99.90
2106;DHT22;1059;52.548;13.408;2023-04-03T03:10:16;0.60;99.90
2106;DHT22;1059;52.548;13.408;2023-04-03T03:12:43;0.60;99.90
2106;DHT22;1059;52.548;13.408;2023-04-03T03:15:12;0.60;99.90
2106;DHT22;1059;52.548;13.408;2023-04-03T03:17:39;0.50;99.90
2106;DHT22;1059;52.548;13.408;2023-04-03T03:20:07;0.60;99.90
2106;DHT22;1059;52.548;13.408;2023-04-03T03:22:34;0.50;99.90
2106;DHT22;1059;52.548;13.408;2023-04-03T03:25:01;0.50;99.90
2106;DHT22;1059;52.548;13.408;2023-04-03T03:27:28;0.50;99.90
2106;DHT22;1059;52.548;13.408;2023-04-03T03:29:55;0.50;99.90
2106;DHT22;1059;52.548;13.408;2023-04-03T03:32:23;0.40;99.90
2106;DHT22;1059;52.548;13.408;2023-04-03T03:34:50;0.40;99.90
2106;DHT22;1059;52.548;13.408;2023-04-03T03:37:17;0.50;99.90
2106;DHT22;1059;52.548;13.408;2023-04-03T03:39:44;0.40;99.90
2106;DHT22;1059;52.548;13.408;2023-04-03T03:42:11;0.50;99.90
2106;DHT22;1059;52.548;13.408;2023-04-03T03:44:38;0.50;99.90
2106;DHT22;1059;52.548;13.408;2023-04-03T03:47:05;0.40;99.90
2106;DHT22;1059;52.548;13.408;2023-04-03T03:49:33;0.40;99.90
2106;DHT22;1059;52.548;13.408;2023-04-03T03:52:00;0.40;99.90
2106;DHT22;1059;52.548;13.408;2023-04-03T03:54:27;0.40;99.90
2106;DHT22;1059;52.548;13.408;2023-04-03T03:56:54;0.40;99.90
2106;DHT22;1059;52.548;13.408;2023-04-03T03:59:21;0.40;99.90
2106;DHT22;1059;52.548;13.408;2023-04-03T04:01:48;0.50;99.90
2106;DHT22;1059;52.548;13.408;2023-04-03T04:04:14;0.50;99.90
2106;DHT22;1059;52.548;13.408;2023-04-03T04:06:43;0.40;99.90
2106;DHT22;1059;52.548;13.408;2023-04-03T04:09:10;0.40;99.90
2106;DHT22;1059;52.548;13.408;2023-04-03T04:11:37;0.40;99.90
2106;DHT22;1059;52.548;13.408;2023-04-03T04:14:05;0.30;99.90
2106;DHT22;1059;52.548;13.408;2023-04-03T04:16:32;0.30;99.90
2106;DHT22;1059;52.548;13.408;2023-04-03T04:18:59;0.30;99.90
2106;DHT22;1059;52.548;13.408;2023-04-03T04:21:25;0.30;99.90
2106;DHT22;1059;52.548;13.408;2023-04-03T04:23:54;0.30;99.90
2106;DHT22;1059;52.548;13.408;2023-04-03T04:26:21;0.30;99.90
2106;DHT22;1059;52.548;13.408;2023-04-03T04:28:47;0.30;99.90
2106;DHT22;1059;52.548;13.408;2023-04-03T04:31:14;0.30;99.90
2106;DHT22;1059;52.548;13.408;2023-04-03T04:33:41;0.30;99.90
2106;DHT22;1059;52.548;13.408;2023-04-03T04:36:08;0.30;99.90
2106;DHT22;1059;52.548;13.408;2023-04-03T04:38:35;0.30;99.90
2106;DHT22;1059;52.548;13.408;2023-04-03T04:41:03;0.30;99.90
2106;DHT22;1059;52.548;13.408;2023-04-03T04:43:30;0.30;99.90
2106;DHT22;1059;52.548;13.408;2023-04-03T04:46:02;0.30;99.90
2106;DHT22;1059;52.548;13.408;2023-04-03T04:48:28;0.30;99.90
2106;DHT22;1059;52.548;13.408;2023-04-03T04:50:55;0.20;99.90
2106;DHT22;1059;52.548;13.408;2023-04-03T04:53:22;0.20;99.90
2106;DHT22;1059;52.548;13.408;2023-04-03T04:55:49;0.20;99.90
2106;DHT22;1059;52.548;13.408;2023-04-03T04:58:18;0.20;99.90
2106;DHT22;1059;52.548;13.408;2023-04-03T05:00:46;0.20;99.90
2106;DHT22;1059;52.548;13.408;2023-04-03T05:03:13;0.20;99.90
2106;DHT22;1059;52.548;13.408;2023-04-03T05:05:40;0.20;99.90
2106;DHT22;1059;52.548;13.408;2023-04-03T05:08:07;0.20;99.90
2106;DHT22;1059;52.548;13.408;2023-04-03T05:10:34;0.20;99.90
2106;DHT22;1059;52.548;13.408;2023-04-03T05:13:01;0.30;99.90
2106;DHT22;1059;52.548;13.408;2023-04-03T05:15:29;0.30;99.90
2106;DHT22;1059;52.548;13.408;2023-04-03T05:17:56;0.30;99.90
2106;DHT22;1059;52.548;13.408;2023-04-03T05:20:23;0.30;99.90
2106;DHT22;1059;52.548;13.408;2023-04-03T05:22:50;0.30;99.90
2106;DHT22;1059;52.548;13.408;2023-04-03T05:25:20;0.30;99.90
2106;DHT22;1059;52.548;13.408;2023-04-03T05:27:47;0.40;99.90
2106;DHT22;1059;52.548;13.408;2023-04-03T05:30:14;0.40;99.90
2106;DHT22;1059;52.548;13.408;2023-04-03T05:32:42;0.40;99.90
2106;DHT22;1059;52.548;13.408;2023-04-03T05:35:10;0.40;99.90
2106;DHT22;1059;52.548;13.408;2023-04-03T05:37:37;0.40;99.90
2106;DHT22;1059;52.548;13.408;2023-04-03T05:40:06;0.40;99.90
2106;DHT22;1059;52.548;13.408;2023-04-03T05:42:33;0.40;99.90
2106;DHT22;1059;52.548;13.408;2023-04-03T05:45:01;0.50;99.90
2106;DHT22;1059;52.548;13.408;2023-04-03T05:47:27;0.50;99.90
2106;DHT22;1059;52.548;13.408;2023-04-03T05:49:56;0.50;99.90
2106;DHT22;1059;52.548;13.408;2023-04-03T05:52:26;0.60;99.90
2106;DHT22;1059;52.548;13.408;2023-04-03T05:54:53;0.60;99.90
2106;DHT22;1059;52.548;13.408;2023-04-03T05:57:20;0.60;99.90
2106;DHT22;1059;52.548;13.408;2023-04-03T05:59:47;0.70;99.90
2106;DHT22;1059;52.548;13.408;2023-04-03T06:02:16;0.70;99.90
2106;DHT22;1059;52.548;13.408;2023-04-03T06:04:43;0.70;99.90
2106;DHT22;1059;52.548;13.408;2023-04-03T06:07:14;0.80;99.90
2106;DHT22;1059;52.548;13.408;2023-04-03T06:09:44;0.80;99.90
2106;DHT22;1059;52.548;13.408;2023-04-03T06:12:11;0.80;99.90
2106;DHT22;1059;52.548;13.408;2023-04-03T06:14:41;0.90;99.90
2106;DHT22;1059;52.548;13.408;2023-04-03T06:17:09;0.90;99.90
2106;DHT22;1059;52.548;13.408;2023-04-03T06:19:37;1.00;99.90
2106;DHT22;1059;52.548;13.408;2023-04-03T06:22:04;1.00;99.90
2106;DHT22;1059;52.548;13.408;2023-04-03T06:24:33;1.10;99.90
2106;DHT22;1059;52.548;13.408;2023-04-03T06:27:01;1.20;99.90
2106;DHT22;1059;52.548;13.408;2023-04-03T06:29:28;1.30;99.90
2106;DHT22;1059;52.548;13.408;2023-04-03T06:31:55;1.30;99.90
2106;DHT22;1059;52.548;13.408;2023-04-03T06:34:22;1.30;99.90
2106;DHT22;1059;52.548;13.408;2023-04-03T06:36:49;1.40;99.90
2106;DHT22;1059;52.548;13.408;2023-04-03T06:39:18;1.40;99.90
2106;DHT22;1059;52.548;13.408;2023-04-03T06:41:49;1.50;99.90
2106;DHT22;1059;52.548;13.408;2023-04-03T06:44:16;1.50;99.90
2106;DHT22;1059;52.548;13.408;2023-04-03T06:46:44;1.60;99.90
2106;DHT22;1059;52.548;13.408;2023-04-03T06:49:12;1.70;99.90
2106;DHT22;1059;52.548;13.408;2023-04-03T06:51:39;1.70;99.90
2106;DHT22;1059;52.548;13.408;2023-04-03T06:54:06;1.80;99.90
2106;DHT22;1059;52.548;13.408;2023-04-03T06:56:34;1.90;99.90
2106;DHT22;1059;52.548;13.408;2023-04-03T06:59:02;1.90;99.90
2106;DHT22;1059;52.548;13.408;2023-04-03T07:01:30;2.00;99.90
2106;DHT22;1059;52.548;13.408;2023-04-03T07:03:57;2.00;99.90
2106;DHT22;1059;52.548;13.408;2023-04-03T07:06:24;2.10;99.90
2106;DHT22;1059;52.548;13.408;2023-04-03T07:08:52;2.10;99.90
2106;DHT22;1059;52.548;13.408;2023-04-03T07:11:19;2.20;99.90
2106;DHT22;1059;52.548;13.408;2023-04-03T07:13:46;2.30;99.90
2106;DHT22;1059;52.548;13.408;2023-04-03T07:16:15;2.40;99.90
2106;DHT22;1059;52.548;13.408;2023-04-03T07:18:41;2.50;99.90
2106;DHT22;1059;52.548;13.408;2023-04-03T07:21:08;2.60;99.90
2106;DHT22;1059;52.548;13.408;2023-04-03T07:23:36;2.80;99.90
2106;DHT22;1059;52.548;13.408;2023-04-03T07:26:03;2.90;99.90
2106;DHT22;1059;52.548;13.408;2023-04-03T07:28:30;3.10;99.90
2106;DHT22;1059;52.548;13.408;2023-04-03T07:31:00;3.20;99.90
2106;DHT22;1059;52.548;13.408;2023-04-03T07:33:29;3.30;99.90
2106;DHT22;1059;52.548;13.408;2023-04-03T07:35:56;3.50;99.90
2106;DHT22;1059;52.548;13.408;2023-04-03T07:38:23;3.60;99.90
2106;DHT22;1059;52.548;13.408;2023-04-03T07:40:51;3.70;99.90
2106;DHT22;1059;52.548;13.408;2023-04-03T07:43:20;3.60;99.90
2106;DHT22;1059;52.548;13.408;2023-04-03T07:45:47;3.50;99.90
2106;DHT22;1059;52.548;13.408;2023-04-03T07:48:17;3.50;99.90
2106;DHT22;1059;52.548;13.408;2023-04-03T07:50:46;3.50;99.90
2106;DHT22;1059;52.548;13.408;2023-04-03T07:53:13;3.60;99.90
2106;DHT22;1059;52.548;13.408;2023-04-03T07:55:40;3.70;99.90
2106;DHT22;1059;52.548;13.408;2023-04-03T07:58:10;3.80;99.90
2106;DHT22;1059;52.548;13.408;2023-04-03T08:00:38;3.90;99.90
2106;DHT22;1059;52.548;13.408;2023-04-03T08:03:07;3.90;99.90
2106;DHT22;1059;52.548;13.408;2023-04-03T08:05:36;3.80;99.90
2106;DHT22;1059;52.548;13.408;2023-04-03T08:08:06;3.90;99.90
2106;DHT22;1059;52.548;13.408;2023-04-03T08:10:33;3.80;99.90
2106;DHT22;1059;52.548;13.408;2023-04-03T08:13:01;3.80;99.90
2106;DHT22;1059;52.548;13.408;2023-04-03T08:15:28;3.70;99.90
2106;DHT22;1059;52.548;13.408;2023-04-03T08:17:56;3.80;99.90
2106;DHT22;1059;52.548;13.408;2023-04-03T08:20:23;3.80;99.90
2106;DHT22;1059;52.548;13.408;2023-04-03T08:22:50;3.80;99.90
2106;DHT22;1059;52.548;13.408;2023-04-03T08:25:18;4.00;99.90
2106;DHT22;1059;52.548;13.408;2023-04-03T08:27:46;4.10;99.90
2106;DHT22;1059;52.548;13.408;2023-04-03T08:30:13;4.30;99.90
2106;DHT22;1059;52.548;13.408;2023-04-03T08:32:40;4.40;99.90
2106;DHT22;1059;52.548;13.408;2023-04-03T08:35:09;4.50;99.90
2106;DHT22;1059;52.548;13.408;2023-04-03T08:37:36;4.60;99.90
2106;DHT22;1059;52.548;13.408;2023-04-03T08:40:04;4.70;99.90
2106;DHT22;1059;52.548;13.408;2023-04-03T08:42:41;4.80;99.90
2106;DHT22;1059;52.548;13.408;2023-04-03T08:45:14;4.80;99.90
2106;DHT22;1059;52.548;13.408;2023-04-03T08:47:48;4.90;99.90
2106;DHT22;1059;52.548;13.408;2023-04-03T08:50:20;4.90;99.90
2106;DHT22;1059;52.548;13.408;2023-04-03T08:52:52;5.00;99.90
2106;DHT22;1059;52.548;13.408;2023-04-03T08:55:24;5.10;99.90
2106;DHT22;1059;52.548;13.408;2023-04-03T08:58:01;5.10;99.90
2106;DHT22;1059;52.548;13.408;2023-04-03T09:00:32;5.20;99.90
2106;DHT22;1059;52.548;13.408;2023-04-03T09:03:01;5.20;99.90
2106;DHT22;1059;52.548;13.408;2023-04-03T09:05:35;5.20;99.90
2106;DHT22;1059;52.548;13.408;2023-04-03T09:08:09;5.30;99.90
2106;DHT22;1059;52.548;13.408;2023-04-03T09:10:40;5.30;99.90
2106;DHT22;1059;52.548;13.408;2023-04-03T09:13:17;5.10;99.90
2106;DHT22;1059;52.548;13.408;2023-04-03T09:15:47;4.90;99.90
2106;DHT22;1059;52.548;13.408;2023-04-03T09:18:19;4.80;99.90
2106;DHT22;1059;52.548;13.408;2023-04-03T09:20:56;4.70;99.90
2106;DHT22;1059;52.548;13.408;2023-04-03T09:23:29;4.60;99.90
2106;DHT22;1059;52.548;13.408;2023-04-03T09:26:02;4.50;99.90
2106;DHT22;1059;52.548;13.408;2023-04-03T09:28:35;4.60;99.90
2106;DHT22;1059;52.548;13.408;2023-04-03T09:31:16;4.70;99.90
2106;DHT22;1059;52.548;13.408;2023-04-03T09:33:44;4.70;99.90
2106;DHT22;1059;52.548;13.408;2023-04-03T09:36:12;4.80;99.90
2106;DHT22;1059;52.548;13.408;2023-04-03T09:38:39;4.80;98.90
2106;DHT22;1059;52.548;13.408;2023-04-03T09:41:09;4.80;99.80
2106;DHT22;1059;52.548;13.408;2023-04-03T09:43:51;4.90;99.90
2106;DHT22;1059;52.548;13.408;2023-04-03T09:46:29;4.80;99.60
2106;DHT22;1059;52.548;13.408;2023-04-03T09:48:57;4.80;99.10
2106;DHT22;1059;52.548;13.408;2023-04-03T09:51:31;4.80;99.40
2106;DHT22;1059;52.548;13.408;2023-04-03T09:53:58;4.70;99.70
2106;DHT22;1059;52.548;13.408;2023-04-03T09:56:27;4.90;99.90
2106;DHT22;1059;52.548;13.408;2023-04-03T09:59:13;5.10;99.90
2106;DHT22;1059;52.548;13.408;2023-04-03T10:01:43;5.50;99.90
2106;DHT22;1059;52.548;13.408;2023-04-03T10:04:12;5.80;98.40
2106;DHT22;1059;52.548;13.408;2023-04-03T10:06:41;5.90;97.00
2106;DHT22;1059;52.548;13.408;2023-04-03T10:09:18;5.90;95.10
2106;DHT22;1059;52.548;13.408;2023-04-03T10:12:03;6.10;94.50
2106;DHT22;1059;52.548;13.408;2023-04-03T10:14:33;6.30;94.60
2106;DHT22;1059;52.548;13.408;2023-04-03T10:17:15;6.40;92.80
2106;DHT22;1059;52.548;13.408;2023-04-03T10:19:48;6.50;91.90
2106;DHT22;1059;52.548;13.408;2023-04-03T10:22:20;6.60;91.50
2106;DHT22;1059;52.548;13.408;2023-04-03T10:24:56;6.70;91.30
2106;DHT22;1059;52.548;13.408;2023-04-03T10:27:37;6.70;86.20
2106;DHT22;1059;52.548;13.408;2023-04-03T10:30:19;6.70;83.70
2106;DHT22;1059;52.548;13.408;2023-04-03T10:32:58;6.90;81.00
2106;DHT22;1059;52.548;13.408;2023-04-03T10:35:37;6.90;78.70
2106;DHT22;1059;52.548;13.408;2023-04-03T10:38:13;7.00;77.30
2106;DHT22;1059;52.548;13.408;2023-04-03T10:40:47;7.10;77.30
2106;DHT22;1059;52.548;13.408;2023-04-03T10:43:24;7.10;74.40
2106;DHT22;1059;52.548;13.408;2023-04-03T10:45:59;7.40;79.50
2106;DHT22;1059;52.548;13.408;2023-04-03T10:48:40;7.40;72.10
2106;DHT22;1059;52.548;13.408;2023-04-03T10:51:20;7.50;73.90
2106;DHT22;1059;52.548;13.408;2023-04-03T10:53:55;7.40;73.90
2106;DHT22;1059;52.548;13.408;2023-04-03T10:56:30;7.60;77.70
2106;DHT22;1059;52.548;13.408;2023-04-03T10:59:02;7.70;74.60
2106;DHT22;1059;52.548;13.408;2023-04-03T11:01:38;7.80;71.50
2106;DHT22;1059;52.548;13.408;2023-04-03T11:04:06;7.90;70.90
2106;DHT22;1059;52.548;13.408;2023-04-03T11:06:36;7.70;70.20
2106;DHT22;1059;52.548;13.408;2023-04-03T11:09:12;7.80;71.80
2106;DHT22;1059;52.548;13.408;2023-04-03T11:11:43;7.60;69.70
2106;DHT22;1059;52.548;13.408;2023-04-03T11:14:17;7.50;71.20
2106;DHT22;1059;52.548;13.408;2023-04-03T11:16:59;7.40;72.20
2106;DHT22;1059;52.548;13.408;2023-04-03T11:19:34;7.40;70.80
2106;DHT22;1059;52.548;13.408;2023-04-03T11:22:06;7.30;71.80
2106;DHT22;1059;52.548;13.408;2023-04-03T11:24:38;7.20;70.70
2106;DHT22;1059;52.548;13.408;2023-04-03T11:27:15;7.00;73.50
2106;DHT22;1059;52.548;13.408;2023-04-03T11:29:44;6.90;74.00
2106;DHT22;1059;52.548;13.408;2023-04-03T11:32:32;7.00;74.60
2106;DHT22;1059;52.548;13.408;2023-04-03T11:35:05;7.00;75.60
2106;DHT22;1059;52.548;13.408;2023-04-03T11:37:34;6.80;72.30
2106;DHT22;1059;52.548;13.408;2023-04-03T11:40:04;6.70;73.20
2106;DHT22;1059;52.548;13.408;2023-04-03T11:42:36;6.70;73.10
2106;DHT22;1059;52.548;13.408;2023-04-03T11:45:31;6.70;76.20
2106;DHT22;1059;52.548;13.408;2023-04-03T11:48:02;6.70;76.90
2106;DHT22;1059;52.548;13.408;2023-04-03T11:50:47;6.90;76.50
2106;DHT22;1059;52.548;13.408;2023-04-03T11:53:35;7.20;79.30
2106;DHT22;1059;52.548;13.408;2023-04-03T11:56:30;7.30;76.40
2106;DHT22;1059;52.548;13.408;2023-04-03T11:59:36;7.30;75.10
2106;DHT22;1059;52.548;13.408;2023-04-03T12:02:35;7.00;73.70
2106;DHT22;1059;52.548;13.408;2023-04-03T12:05:25;6.60;75.10
2106;DHT22;1059;52.548;13.408;2023-04-03T12:11:14;6.40;80.10
2106;DHT22;1059;52.548;13.408;2023-04-03T12:14:03;6.30;79.70
2106;DHT22;1059;52.548;13.408;2023-04-03T12:16:33;6.40;81.80
2106;DHT22;1059;52.548;13.408;2023-04-03T12:19:01;6.50;81.50
2106;DHT22;1059;52.548;13.408;2023-04-03T12:24:36;6.60;82.20
2106;DHT22;1059;52.548;13.408;2023-04-03T12:27:25;6.10;80.80
2106;DHT22;1059;52.548;13.408;2023-04-03T12:29:58;6.10;83.80
2106;DHT22;1059;52.548;13.408;2023-04-03T12:32:39;6.10;85.70
2106;DHT22;1059;52.548;13.408;2023-04-03T12:35:20;6.20;85.40
2106;DHT22;1059;52.548;13.408;2023-04-03T12:38:16;6.30;81.90
2106;DHT22;1059;52.548;13.408;2023-04-03T12:40:51;6.40;78.10
2106;DHT22;1059;52.548;13.408;2023-04-03T12:43:38;6.80;79.20
2106;DHT22;1059;52.548;13.408;2023-04-03T12:46:12;7.40;73.60
2106;DHT22;1059;52.548;13.408;2023-04-03T12:48:47;7.60;72.30
2106;DHT22;1059;52.548;13.408;2023-04-03T12:51:16;7.50;68.90
2106;DHT22;1059;52.548;13.408;2023-04-03T12:53:45;7.40;70.60
2106;DHT22;1059;52.548;13.408;2023-04-03T12:56:21;7.20;69.20
2106;DHT22;1059;52.548;13.408;2023-04-03T12:58:49;7.10;71.60
2106;DHT22;1059;52.548;13.408;2023-04-03T13:01:18;7.00;71.70
2106;DHT22;1059;52.548;13.408;2023-04-03T13:03:48;6.80;72.90
2106;DHT22;1059;52.548;13.408;2023-04-03T13:06:19;6.60;73.40
2106;DHT22;1059;52.548;13.408;2023-04-03T13:08:55;6.60;76.00
2106;DHT22;1059;52.548;13.408;2023-04-03T13:11:26;6.50;77.50
2106;DHT22;1059;52.548;13.408;2023-04-03T13:13:58;6.40;76.20
2106;DHT22;1059;52.548;13.408;2023-04-03T13:16:25;6.30;78.00
2106;DHT22;1059;52.548;13.408;2023-04-03T13:18:53;6.30;79.30
2106;DHT22;1059;52.548;13.408;2023-04-03T13:21:22;6.30;79.30
2106;DHT22;1059;52.548;13.408;2023-04-03T13:23:52;6.20;78.80
2106;DHT22;1059;52.548;13.408;2023-04-03T13:26:24;6.20;79.90
2106;DHT22;1059;52.548;13.408;2023-04-03T13:28:53;6.10;80.00
2106;DHT22;1059;52.548;13.408;2023-04-03T13:31:25;6.10;80.40
2106;DHT22;1059;52.548;13.408;2023-04-03T13:33:56;6.10;84.00
2106;DHT22;1059;52.548;13.408;2023-04-03T13:36:26;6.20;81.50
2106;DHT22;1059;52.548;13.408;2023-04-03T15:57:44;5.20;99.90
2106;DHT22;1059;52.548;13.408;2023-04-03T16:00:12;5.10;99.90
2106;DHT22;1059;52.548;13.408;2023-04-03T16:02:39;5.10;99.90
2106;DHT22;1059;52.548;13.408;2023-04-03T16:05:09;5.10;99.90
2106;DHT22;1059;52.548;13.408;2023-04-03T16:07:37;5.00;99.90
2106;DHT22;1059;52.548;13.408;2023-04-03T16:10:05;5.10;99.90
2106;DHT22;1059;52.548;13.408;2023-04-03T16:12:32;5.10;99.90
2106;DHT22;1059;52.548;13.408;2023-04-03T16:15:00;5.40;99.90
2106;DHT22;1059;52.548;13.408;2023-04-03T16:17:27;5.80;99.90
2106;DHT22;1059;52.548;13.408;2023-04-03T16:19:56;6.20;99.90
2106;DHT22;1059;52.548;13.408;2023-04-03T16:22:24;6.50;99.90
2106;DHT22;1059;52.548;13.408;2023-04-03T16:24:51;6.50;99.90
2106;DHT22;1059;52.548;13.408;2023-04-03T16:27:18;6.50;99.90
2106;DHT22;1059;52.548;13.408;2023-04-03T16:29:44;6.40;99.90
2106;DHT22;1059;52.548;13.408;2023-04-03T16:32:13;6.30;99.80
2106;DHT22;1059;52.548;13.408;2023-04-03T16:34:40;6.30;99.90
2106;DHT22;1059;52.548;13.408;2023-04-03T16:37:07;6.20;99.90
2106;DHT22;1059;52.548;13.408;2023-04-03T16:39:34;6.00;99.90
2106;DHT22;1059;52.548;13.408;2023-04-03T16:42:01;5.90;99.90
2106;DHT22;1059;52.548;13.408;2023-04-03T16:44:28;5.90;99.90
2106;DHT22;1059;52.548;13.408;2023-04-03T16:46:55;5.80;99.90
2106;DHT22;1059;52.548;13.408;2023-04-03T16:49:23;5.80;99.90
2106;DHT22;1059;52.548;13.408;2023-04-03T16:51:50;5.70;99.90
2106;DHT22;1059;52.548;13.408;2023-04-03T16:54:17;5.60;99.90
2106;DHT22;1059;52.548;13.408;2023-04-03T16:56:43;5.60;99.90
2106;DHT22;1059;52.548;13.408;2023-04-03T16:59:10;5.50;99.90
2106;DHT22;1059;52.548;13.408;2023-04-03T17:01:37;5.40;99.90
2106;DHT22;1059;52.548;13.408;2023-04-03T17:04:04;5.20;99.90
2106;DHT22;1059;52.548;13.408;2023-04-03T17:06:32;5.10;99.90
2106;DHT22;1059;52.548;13.408;2023-04-03T17:09:00;5.10;99.90
2106;DHT22;1059;52.548;13.408;2023-04-03T17:11:27;5.10;99.90
2106;DHT22;1059;52.548;13.408;2023-04-03T17:13:53;5.00;99.90
2106;DHT22;1059;52.548;13.408;2023-04-03T17:16:21;5.00;99.90
2106;DHT22;1059;52.548;13.408;2023-04-03T17:18:48;4.90;99.90
2106;DHT22;1059;52.548;13.408;2023-04-03T17:21:15;5.00;99.90
2106;DHT22;1059;52.548;13.408;2023-04-03T17:23:47;5.00;99.90
2106;DHT22;1059;52.548;13.408;2023-04-03T17:26:15;5.00;99.90
2106;DHT22;1059;52.548;13.408;2023-04-03T17:28:42;4.90;99.90
2106;DHT22;1059;52.548;13.408;2023-04-03T17:31:08;4.80;99.90
2106;DHT22;1059;52.548;13.408;2023-04-03T17:33:35;4.80;99.90
2106;DHT22;1059;52.548;13.408;2023-04-03T17:36:03;4.80;99.90
2106;DHT22;1059;52.548;13.408;2023-04-03T17:38:31;4.80;99.90
2106;DHT22;1059;52.548;13.408;2023-04-03T17:41:01;4.80;99.90
2106;DHT22;1059;52.548;13.408;2023-04-03T17:43:28;4.80;99.90
2106;DHT22;1059;52.548;13.408;2023-04-03T17:45:59;4.80;99.90
2106;DHT22;1059;52.548;13.408;2023-04-03T17:48:28;4.80;99.90
2106;DHT22;1059;52.548;13.408;2023-04-03T17:50:55;4.80;99.90
2106;DHT22;1059;52.548;13.408;2023-04-03T17:53:22;4.70;99.90
2106;DHT22;1059;52.548;13.408;2023-04-03T17:55:49;4.60;99.90
2106;DHT22;1059;52.548;13.408;2023-04-03T17:58:17;4.60;99.90
2106;DHT22;1059;52.548;13.408;2023-04-03T18:00:44;4.60;99.90
2106;DHT22;1059;52.548;13.408;2023-04-03T18:03:11;4.50;99.90
2106;DHT22;1059;52.548;13.408;2023-04-03T18:05:38;4.50;99.90
2106;DHT22;1059;52.548;13.408;2023-04-03T18:08:06;4.50;99.90
2106;DHT22;1059;52.548;13.408;2023-04-03T18:10:34;4.40;99.90
2106;DHT22;1059;52.548;13.408;2023-04-03T18:13:03;4.40;99.90
2106;DHT22;1059;52.548;13.408;2023-04-03T18:15:31;4.40;99.90
2106;DHT22;1059;52.548;13.408;2023-04-03T18:17:58;4.40;99.90
2106;DHT22;1059;52.548;13.408;2023-04-03T18:20:25;4.40;99.90
2106;DHT22;1059;52.548;13.408;2023-04-03T18:22:52;4.40;99.90
2106;DHT22;1059;52.548;13.408;2023-04-03T18:25:19;4.40;99.90
2106;DHT22;1059;52.548;13.408;2023-04-03T18:27:46;4.40;99.90
2106;DHT22;1059;52.548;13.408;2023-04-03T18:30:15;4.40;99.90
2106;DHT22;1059;52.548;13.408;2023-04-03T18:32:44;4.40;99.90
2106;DHT22;1059;52.548;13.408;2023-04-03T18:35:11;4.30;99.90
2106;DHT22;1059;52.548;13.408;2023-04-03T18:37:38;4.30;99.90
2106;DHT22;1059;52.548;13.408;2023-04-03T18:40:06;4.30;99.90
2106;DHT22;1059;52.548;13.408;2023-04-03T18:42:33;4.20;99.90
2106;DHT22;1059;52.548;13.408;2023-04-03T18:45:01;4.20;99.90
2106;DHT22;1059;52.548;13.408;2023-04-03T18:47:30;4.10;99.90